George S. — A8TJ9 — position and weather

sailwx.info

Track history (hours):
 
Tides and Currents Weather Stations Pressure Air Temp Water Temp Dewpoint Dewpoint Depression Visibility Wind Speed Wind Dir Waves Ship Positions

George S.

Last reported at 2015-Feb-08 09:21 UTC. Time now 2015-Mar-02 19:00 UTC.
Position S 34°01' E 018°15'.
Warning: this ship's position is 22 days out of date.

Length 274 m; draft 9.3 m.

Type: Ship. MMSI: 636014372.

Date/timePositionNaut miles runAvg speedWind from/ knotsBaromVisibWave heightAir tempDewpointWater temp
2015-Feb-08 09:21S 34°01' E 018°15'9 9.1
2015-Feb-08 08:19S 34°10' E 018°12'22010.6
2015-Feb-07 11:32S 34°44' E 022°35'26511.8
2015-Feb-06 13:10S 33°50' E 027°49'29011.6
2015-Feb-05 12:13S 29°55' E 031°09'4 5.5
2015-Feb-05 11:33S 29°52' E 031°09'2 2.2
2015-Feb-05 10:33S 29°53' E 031°08'2 1.9
2015-Feb-05 09:33S 29°54' E 031°06'2 1.6
2015-Feb-05 08:33S 29°55' E 031°07'1 0.5
2015-Feb-05 07:32S 29°56' E 031°08'0 0.1
2015-Feb-05 06:33S 29°56' E 031°08'1 0.5
2015-Feb-05 05:33S 29°55' E 031°08'1 0.9
2015-Feb-05 04:33S 29°55' E 031°07'9 9.0
2015-Feb-05 03:32S 30°01' E 031°00'2 1.8
2015-Feb-05 02:28S 30°01' E 030°58'0 0.0
2015-Feb-05 01:28S 30°01' E 030°58'0 0.0
2015-Feb-05 00:28S 30°01' E 030°58'0 0.0
2015-Feb-04 23:28S 30°01' E 030°58'0 0.0
2015-Feb-04 22:28S 30°01' E 030°58'0 0.0
2015-Feb-04 21:28S 30°01' E 030°58'0 0.0
2015-Feb-04 20:28S 30°01' E 030°58'0 0.0
2015-Feb-04 19:22S 30°01' E 030°58'0 0.0
2015-Feb-04 18:28S 30°01' E 030°58'0 0.0
2015-Feb-04 17:16S 30°00' E 030°58'0 0.0
2015-Feb-04 16:04S 30°00' E 030°58'0 0.0
2015-Feb-04 14:16S 30°00' E 030°58'0 0.0
2015-Feb-04 11:16S 30°00' E 030°58'0 0.0
2015-Feb-04 09:28S 30°00' E 030°58'0 0.0
2015-Feb-04 08:28S 30°00' E 030°58'0 0.5
2015-Feb-04 07:33S 30°00' E 030°59'3 3.1
2015-Feb-04 06:33S 29°59' E 031°02'7 7.4
2015-Feb-04 05:33S 29°53' E 031°08'0 0.5
2015-Feb-04 04:33S 29°53' E 031°08'0 0.4
2015-Feb-04 03:33S 29°53' E 031°08'8 8.2
2015-Feb-04 02:33S 29°46' E 031°14'1 0.7
2015-Feb-04 01:32S 29°45' E 031°14'0 0.0
2015-Feb-04 00:32S 29°45' E 031°14'0 0.0
2015-Feb-03 23:32S 29°45' E 031°14'0 0.1
2015-Feb-03 22:26S 29°45' E 031°14'0 0.0
2015-Feb-03 21:32S 29°45' E 031°14'0 0.0
2015-Feb-03 20:32S 29°45' E 031°14'0 0.0
2015-Feb-03 19:32S 29°45' E 031°14'0 0.0
2015-Feb-03 18:32S 29°45' E 031°14'0 0.0
2015-Feb-03 17:32S 29°45' E 031°14'0 0.0
2015-Feb-03 16:32S 29°45' E 031°14'0 0.0
2015-Feb-03 15:32S 29°45' E 031°14'0 0.1
2015-Feb-03 14:32S 29°45' E 031°14'0 0.0
2015-Feb-03 13:32S 29°45' E 031°14'0 0.1
2015-Feb-03 12:32S 29°45' E 031°14'0 0.0
2015-Feb-03 11:32S 29°45' E 031°14'0 0.0
2015-Feb-03 10:32S 29°45' E 031°14'0 0.0
2015-Feb-03 09:32S 29°45' E 031°14'0 0.0
2015-Feb-03 08:32S 29°45' E 031°14'0 0.1
2015-Feb-03 07:32S 29°45' E 031°14'0 0.1
2015-Feb-03 06:32S 29°45' E 031°14'0 0.1
2015-Feb-03 05:32S 29°45' E 031°14'0 0.0
2015-Feb-03 04:32S 29°45' E 031°14'0 0.0
2015-Feb-03 03:32S 29°45' E 031°14'0 0.0
2015-Feb-03 02:32S 29°45' E 031°14'0 0.0
2015-Feb-03 01:32S 29°45' E 031°14'0 0.1
2015-Feb-03 00:32S 29°45' E 031°14'0 0.1
2015-Feb-02 23:32S 29°45' E 031°14'0 0.1
2015-Feb-02 22:32S 29°45' E 031°14'0 0.0
2015-Feb-02 21:26S 29°45' E 031°14'0 0.0
2015-Feb-02 20:32S 29°45' E 031°14'0 0.0
2015-Feb-02 19:32S 29°45' E 031°14'0 0.0
2015-Feb-02 18:32S 29°45' E 031°14'0 0.0
2015-Feb-02 17:32S 29°45' E 031°14'0 0.0
2015-Feb-02 16:32S 29°45' E 031°14'0 0.0
2015-Feb-02 15:32S 29°45' E 031°14'0 0.0
2015-Feb-02 14:32S 29°45' E 031°14'0 0.0
2015-Feb-02 11:32S 29°45' E 031°14'0 0.1
2015-Feb-02 10:26S 29°45' E 031°14'0 0.1
2015-Feb-02 09:26S 29°45' E 031°14'0 0.0
2015-Feb-02 08:32S 29°45' E 031°14'0 0.0
2015-Feb-02 07:32S 29°45' E 031°14'0 0.0
2015-Feb-02 06:32S 29°45' E 031°14'0 0.0
2015-Feb-02 05:32S 29°45' E 031°14'0 0.0
2015-Feb-02 04:32S 29°45' E 031°14'0 0.0
2015-Feb-02 03:26S 29°45' E 031°14'0 0.0
2015-Feb-02 02:32S 29°45' E 031°14'0 0.0
2015-Feb-02 01:32S 29°45' E 031°14'0 0.0
2015-Feb-02 00:32S 29°45' E 031°14'0 0.0
2015-Feb-01 23:32S 29°45' E 031°14'0 0.0
2015-Feb-01 22:32S 29°45' E 031°14'0 0.0
2015-Feb-01 21:32S 29°45' E 031°14'0 0.0
2015-Feb-01 20:32S 29°45' E 031°14'0 0.0
2015-Feb-01 19:32S 29°45' E 031°14'0 0.0
2015-Feb-01 18:32S 29°45' E 031°14'0 0.0
2015-Feb-01 17:32S 29°45' E 031°14'0 0.0
2015-Feb-01 16:32S 29°45' E 031°14'0 0.0
2015-Feb-01 15:32S 29°45' E 031°14'0 0.0
2015-Feb-01 14:26S 29°45' E 031°14'0 0.0
2015-Feb-01 13:32S 29°45' E 031°14'0 0.0
2015-Feb-01 12:32S 29°45' E 031°14'0 0.0
2015-Feb-01 11:32S 29°45' E 031°14'0 0.0
2015-Feb-01 10:26S 29°45' E 031°14'0 0.0
2015-Feb-01 09:32S 29°45' E 031°14'0 0.1
2015-Feb-01 08:32S 29°45' E 031°14'0 0.0
2015-Feb-01 07:32S 29°45' E 031°14'0 0.0
2015-Feb-01 06:32S 29°45' E 031°14'0 0.0
2015-Feb-01 05:32S 29°45' E 031°14'0 0.1
2015-Feb-01 04:26S 29°45' E 031°14'0 0.0
2015-Feb-01 03:26S 29°45' E 031°14'0 0.1
2015-Feb-01 02:32S 29°45' E 031°14'0 0.0
2015-Feb-01 01:26S 29°45' E 031°14'0 0.0
2015-Feb-01 00:32S 29°45' E 031°14'0 0.0
2015-Jan-31 23:32S 29°45' E 031°14'0 0.0
2015-Jan-31 22:32S 29°45' E 031°14'0 0.3
2015-Jan-31 21:32S 29°45' E 031°13'0 0.0
2015-Jan-31 20:32S 29°45' E 031°13'0 0.1
2015-Jan-31 19:32S 29°45' E 031°14'0 0.0
2015-Jan-31 18:32S 29°45' E 031°14'0 0.1
2015-Jan-31 17:32S 29°45' E 031°13'0 0.0
2015-Jan-31 16:32S 29°45' E 031°13'0 0.0
2015-Jan-31 15:32S 29°45' E 031°13'0 0.0
2015-Jan-31 14:32S 29°45' E 031°13'0 0.0
2015-Jan-31 13:32S 29°45' E 031°13'0 0.0
2015-Jan-31 12:32S 29°45' E 031°13'0 0.0
2015-Jan-31 11:32S 29°45' E 031°13'0 0.0
2015-Jan-31 10:32S 29°45' E 031°13'0 0.0
2015-Jan-31 09:32S 29°45' E 031°13'0 0.0
2015-Jan-31 08:32S 29°45' E 031°13'0 0.1
2015-Jan-31 07:32S 29°45' E 031°13'0 0.1
2015-Jan-31 06:32S 29°45' E 031°14'0 0.0
2015-Jan-31 05:26S 29°45' E 031°14'0 0.1
2015-Jan-31 04:32S 29°45' E 031°14'0 0.1
2015-Jan-31 03:32S 29°45' E 031°13'0 0.0
2015-Jan-31 02:32S 29°45' E 031°13'0 0.0
2015-Jan-31 01:32S 29°45' E 031°13'0 0.1
2015-Jan-31 00:32S 29°45' E 031°13'0 0.0
2015-Jan-30 23:32S 29°45' E 031°13'0 0.0
2015-Jan-30 22:32S 29°45' E 031°13'0 0.0
2015-Jan-30 21:32S 29°45' E 031°13'0 0.0
2015-Jan-30 20:32S 29°45' E 031°13'0 0.0
2015-Jan-30 19:32S 29°45' E 031°13'0 0.1
2015-Jan-30 18:32S 29°45' E 031°14'0 0.0
2015-Jan-30 17:32S 29°45' E 031°14'0 0.0
2015-Jan-30 16:32S 29°45' E 031°14'0 0.0
2015-Jan-30 15:32S 29°45' E 031°14'0 0.0
2015-Jan-30 14:32S 29°45' E 031°14'0 0.0
2015-Jan-30 13:32S 29°45' E 031°14'0 0.0
2015-Jan-30 12:32S 29°45' E 031°14'0 0.0
2015-Jan-30 11:32S 29°45' E 031°14'0 0.1
2015-Jan-30 10:32S 29°45' E 031°14'0 0.1
2015-Jan-30 09:32S 29°45' E 031°14'0 0.0
2015-Jan-30 08:32S 29°45' E 031°14'0 0.0
2015-Jan-30 07:32S 29°45' E 031°14'0 0.0
2015-Jan-30 06:32S 29°45' E 031°14'0 0.0
2015-Jan-30 05:32S 29°45' E 031°14'0 0.0
2015-Jan-30 04:32S 29°45' E 031°14'0 0.0
2015-Jan-30 03:32S 29°45' E 031°14'0 0.0
2015-Jan-30 02:32S 29°45' E 031°14'0 0.0
2015-Jan-30 01:26S 29°45' E 031°14'0 0.0
2015-Jan-30 00:20S 29°45' E 031°14'0 0.0
2015-Jan-29 23:32S 29°45' E 031°14'0 0.0
2015-Jan-29 22:32S 29°45' E 031°14'0 0.0
2015-Jan-29 21:32S 29°45' E 031°14'0 0.0
2015-Jan-29 20:32S 29°45' E 031°14'0 0.0
2015-Jan-29 19:32S 29°45' E 031°14'0 0.0
2015-Jan-29 18:32S 29°45' E 031°14'0 0.0
2015-Jan-29 17:26S 29°45' E 031°14'0 0.0
2015-Jan-29 16:32S 29°45' E 031°14'0 0.0
2015-Jan-29 15:32S 29°45' E 031°14'0 0.0
2015-Jan-29 14:26S 29°45' E 031°14'0 0.0
2015-Jan-29 13:32S 29°45' E 031°14'0 0.0
2015-Jan-29 12:32S 29°45' E 031°14'0 0.0
2015-Jan-29 11:32S 29°45' E 031°14'0 0.0
2015-Jan-29 10:32S 29°45' E 031°14'0 0.0
2015-Jan-29 09:32S 29°45' E 031°14'  
Track history (hours):
 
Tides and Currents Weather Stations Pressure Air Temp Water Temp Dewpoint Dewpoint Depression Visibility Wind Speed Wind Dir Waves Ship Positions

George S.

Last reported at 2015-Feb-08 09:21 UTC. Time now 2015-Mar-02 19:00 UTC.
Position S 34°01' E 018°15'.
Warning: this ship's position is 22 days out of date.

Length 274 m; draft 9.3 m.

Type: Ship. MMSI: 636014372.

Date/timePositionNaut miles runAvg speedWind from/ knotsBaromVisibWave heightAir tempDewpointWater temp
2015-Feb-08 09:21S 34°01' E 018°15'9 9.1
2015-Feb-08 08:19S 34°10' E 018°12'22010.6
2015-Feb-07 11:32S 34°44' E 022°35'26511.8
2015-Feb-06 13:10S 33°50' E 027°49'29011.6
2015-Feb-05 12:13S 29°55' E 031°09'4 5.5
2015-Feb-05 11:33S 29°52' E 031°09'2 2.2
2015-Feb-05 10:33S 29°53' E 031°08'2 1.9
2015-Feb-05 09:33S 29°54' E 031°06'2 1.6
2015-Feb-05 08:33S 29°55' E 031°07'1 0.5
2015-Feb-05 07:32S 29°56' E 031°08'0 0.1
2015-Feb-05 06:33S 29°56' E 031°08'1 0.5
2015-Feb-05 05:33S 29°55' E 031°08'1 0.9
2015-Feb-05 04:33S 29°55' E 031°07'9 9.0
2015-Feb-05 03:32S 30°01' E 031°00'2 1.8
2015-Feb-05 02:28S 30°01' E 030°58'0 0.0
2015-Feb-05 01:28S 30°01' E 030°58'0 0.0
2015-Feb-05 00:28S 30°01' E 030°58'0 0.0
2015-Feb-04 23:28S 30°01' E 030°58'0 0.0
2015-Feb-04 22:28S 30°01' E 030°58'0 0.0
2015-Feb-04 21:28S 30°01' E 030°58'0 0.0
2015-Feb-04 20:28S 30°01' E 030°58'0 0.0
2015-Feb-04 19:22S 30°01' E 030°58'0 0.0
2015-Feb-04 18:28S 30°01' E 030°58'0 0.0
2015-Feb-04 17:16S 30°00' E 030°58'0 0.0
2015-Feb-04 16:04S 30°00' E 030°58'0 0.0
2015-Feb-04 14:16S 30°00' E 030°58'0 0.0
2015-Feb-04 11:16S 30°00' E 030°58'0 0.0
2015-Feb-04 09:28S 30°00' E 030°58'0 0.0
2015-Feb-04 08:28S 30°00' E 030°58'0 0.5
2015-Feb-04 07:33S 30°00' E 030°59'3 3.1
2015-Feb-04 06:33S 29°59' E 031°02'7 7.4
2015-Feb-04 05:33S 29°53' E 031°08'0 0.5
2015-Feb-04 04:33S 29°53' E 031°08'0 0.4
2015-Feb-04 03:33S 29°53' E 031°08'8 8.2
2015-Feb-04 02:33S 29°46' E 031°14'1 0.7
2015-Feb-04 01:32S 29°45' E 031°14'0 0.0
2015-Feb-04 00:32S 29°45' E 031°14'0 0.0
2015-Feb-03 23:32S 29°45' E 031°14'0 0.1
2015-Feb-03 22:26S 29°45' E 031°14'0 0.0
2015-Feb-03 21:32S 29°45' E 031°14'0 0.0
2015-Feb-03 20:32S 29°45' E 031°14'0 0.0
2015-Feb-03 19:32S 29°45' E 031°14'0 0.0
2015-Feb-03 18:32S 29°45' E 031°14'0 0.0
2015-Feb-03 17:32S 29°45' E 031°14'0 0.0
2015-Feb-03 16:32S 29°45' E 031°14'0 0.0
2015-Feb-03 15:32S 29°45' E 031°14'0 0.1
2015-Feb-03 14:32S 29°45' E 031°14'0 0.0
2015-Feb-03 13:32S 29°45' E 031°14'0 0.1
2015-Feb-03 12:32S 29°45' E 031°14'0 0.0
2015-Feb-03 11:32S 29°45' E 031°14'0 0.0
2015-Feb-03 10:32S 29°45' E 031°14'0 0.0
2015-Feb-03 09:32S 29°45' E 031°14'0 0.0
2015-Feb-03 08:32S 29°45' E 031°14'0 0.1
2015-Feb-03 07:32S 29°45' E 031°14'0 0.1
2015-Feb-03 06:32S 29°45' E 031°14'0 0.1
2015-Feb-03 05:32S 29°45' E 031°14'0 0.0
2015-Feb-03 04:32S 29°45' E 031°14'0 0.0
2015-Feb-03 03:32S 29°45' E 031°14'0 0.0
2015-Feb-03 02:32S 29°45' E 031°14'0 0.0
2015-Feb-03 01:32S 29°45' E 031°14'0 0.1
2015-Feb-03 00:32S 29°45' E 031°14'0 0.1
2015-Feb-02 23:32S 29°45' E 031°14'0 0.1
2015-Feb-02 22:32S 29°45' E 031°14'0 0.0
2015-Feb-02 21:26S 29°45' E 031°14'0 0.0
2015-Feb-02 20:32S 29°45' E 031°14'0 0.0
2015-Feb-02 19:32S 29°45' E 031°14'0 0.0
2015-Feb-02 18:32S 29°45' E 031°14'0 0.0
2015-Feb-02 17:32S 29°45' E 031°14'0 0.0
2015-Feb-02 16:32S 29°45' E 031°14'0 0.0
2015-Feb-02 15:32S 29°45' E 031°14'0 0.0
2015-Feb-02 14:32S 29°45' E 031°14'0 0.0
2015-Feb-02 11:32S 29°45' E 031°14'0 0.1
2015-Feb-02 10:26S 29°45' E 031°14'0 0.1
2015-Feb-02 09:26S 29°45' E 031°14'0 0.0
2015-Feb-02 08:32S 29°45' E 031°14'0 0.0
2015-Feb-02 07:32S 29°45' E 031°14'0 0.0
2015-Feb-02 06:32S 29°45' E 031°14'0 0.0
2015-Feb-02 05:32S 29°45' E 031°14'0 0.0
2015-Feb-02 04:32S 29°45' E 031°14'0 0.0
2015-Feb-02 03:26S 29°45' E 031°14'0 0.0
2015-Feb-02 02:32S 29°45' E 031°14'0 0.0
2015-Feb-02 01:32S 29°45' E 031°14'0 0.0
2015-Feb-02 00:32S 29°45' E 031°14'0 0.0
2015-Feb-01 23:32S 29°45' E 031°14'0 0.0
2015-Feb-01 22:32S 29°45' E 031°14'0 0.0
2015-Feb-01 21:32S 29°45' E 031°14'0 0.0
2015-Feb-01 20:32S 29°45' E 031°14'0 0.0
2015-Feb-01 19:32S 29°45' E 031°14'0 0.0
2015-Feb-01 18:32S 29°45' E 031°14'0 0.0
2015-Feb-01 17:32S 29°45' E 031°14'0 0.0
2015-Feb-01 16:32S 29°45' E 031°14'0 0.0
2015-Feb-01 15:32S 29°45' E 031°14'0 0.0
2015-Feb-01 14:26S 29°45' E 031°14'0 0.0
2015-Feb-01 13:32S 29°45' E 031°14'0 0.0
2015-Feb-01 12:32S 29°45' E 031°14'0 0.0
2015-Feb-01 11:32S 29°45' E 031°14'0 0.0
2015-Feb-01 10:26S 29°45' E 031°14'0 0.0
2015-Feb-01 09:32S 29°45' E 031°14'0 0.1
2015-Feb-01 08:32S 29°45' E 031°14'0 0.0
2015-Feb-01 07:32S 29°45' E 031°14'0 0.0
2015-Feb-01 06:32S 29°45' E 031°14'0 0.0
2015-Feb-01 05:32S 29°45' E 031°14'0 0.1
2015-Feb-01 04:26S 29°45' E 031°14'0 0.0
2015-Feb-01 03:26S 29°45' E 031°14'0 0.1
2015-Feb-01 02:32S 29°45' E 031°14'0 0.0
2015-Feb-01 01:26S 29°45' E 031°14'0 0.0
2015-Feb-01 00:32S 29°45' E 031°14'0 0.0
2015-Jan-31 23:32S 29°45' E 031°14'0 0.0
2015-Jan-31 22:32S 29°45' E 031°14'0 0.3
2015-Jan-31 21:32S 29°45' E 031°13'0 0.0
2015-Jan-31 20:32S 29°45' E 031°13'0 0.1
2015-Jan-31 19:32S 29°45' E 031°14'0 0.0
2015-Jan-31 18:32S 29°45' E 031°14'0 0.1
2015-Jan-31 17:32S 29°45' E 031°13'0 0.0
2015-Jan-31 16:32S 29°45' E 031°13'0 0.0
2015-Jan-31 15:32S 29°45' E 031°13'0 0.0
2015-Jan-31 14:32S 29°45' E 031°13'0 0.0
2015-Jan-31 13:32S 29°45' E 031°13'0 0.0
2015-Jan-31 12:32S 29°45' E 031°13'0 0.0
2015-Jan-31 11:32S 29°45' E 031°13'0 0.0
2015-Jan-31 10:32S 29°45' E 031°13'0 0.0
2015-Jan-31 09:32S 29°45' E 031°13'0 0.0
2015-Jan-31 08:32S 29°45' E 031°13'0 0.1
2015-Jan-31 07:32S 29°45' E 031°13'0 0.1
2015-Jan-31 06:32S 29°45' E 031°14'0 0.0
2015-Jan-31 05:26S 29°45' E 031°14'0 0.1
2015-Jan-31 04:32S 29°45' E 031°14'0 0.1
2015-Jan-31 03:32S 29°45' E 031°13'0 0.0
2015-Jan-31 02:32S 29°45' E 031°13'0 0.0
2015-Jan-31 01:32S 29°45' E 031°13'0 0.1
2015-Jan-31 00:32S 29°45' E 031°13'0 0.0
2015-Jan-30 23:32S 29°45' E 031°13'0 0.0
2015-Jan-30 22:32S 29°45' E 031°13'0 0.0
2015-Jan-30 21:32S 29°45' E 031°13'0 0.0
2015-Jan-30 20:32S 29°45' E 031°13'0 0.0
2015-Jan-30 19:32S 29°45' E 031°13'0 0.1
2015-Jan-30 18:32S 29°45' E 031°14'0 0.0
2015-Jan-30 17:32S 29°45' E 031°14'0 0.0
2015-Jan-30 16:32S 29°45' E 031°14'0 0.0
2015-Jan-30 15:32S 29°45' E 031°14'0 0.0
2015-Jan-30 14:32S 29°45' E 031°14'0 0.0
2015-Jan-30 13:32S 29°45' E 031°14'0 0.0
2015-Jan-30 12:32S 29°45' E 031°14'0 0.0
2015-Jan-30 11:32S 29°45' E 031°14'0 0.1
2015-Jan-30 10:32S 29°45' E 031°14'0 0.1
2015-Jan-30 09:32S 29°45' E 031°14'0 0.0
2015-Jan-30 08:32S 29°45' E 031°14'0 0.0
2015-Jan-30 07:32S 29°45' E 031°14'0 0.0
2015-Jan-30 06:32S 29°45' E 031°14'0 0.0
2015-Jan-30 05:32S 29°45' E 031°14'0 0.0
2015-Jan-30 04:32S 29°45' E 031°14'0 0.0
2015-Jan-30 03:32S 29°45' E 031°14'0 0.0
2015-Jan-30 02:32S 29°45' E 031°14'0 0.0
2015-Jan-30 01:26S 29°45' E 031°14'0 0.0
2015-Jan-30 00:20S 29°45' E 031°14'0 0.0
2015-Jan-29 23:32S 29°45' E 031°14'0 0.0
2015-Jan-29 22:32S 29°45' E 031°14'0 0.0
2015-Jan-29 21:32S 29°45' E 031°14'0 0.0
2015-Jan-29 20:32S 29°45' E 031°14'0 0.0
2015-Jan-29 19:32S 29°45' E 031°14'0 0.0
2015-Jan-29 18:32S 29°45' E 031°14'0 0.0
2015-Jan-29 17:26S 29°45' E 031°14'0 0.0
2015-Jan-29 16:32S 29°45' E 031°14'0 0.0
2015-Jan-29 15:32S 29°45' E 031°14'0 0.0
2015-Jan-29 14:26S 29°45' E 031°14'0 0.0
2015-Jan-29 13:32S 29°45' E 031°14'0 0.0
2015-Jan-29 12:32S 29°45' E 031°14'0 0.0
2015-Jan-29 11:32S 29°45' E 031°14'0 0.0
2015-Jan-29 10:32S 29°45' E 031°14'0 0.0
2015-Jan-29 09:32S 29°45' E 031°14'  

Dump ship's entire track history